Time;durP1;ratioP1;P1;durP2;ratioP2;P2;SDS_P1;SDS_P2;PMS_P1;PMS_P2;Temp;Humidity;BMP_temperature;BMP_pressure;BME280_temperature;BME280_humidity;BME280_pressure;Samples;Min_cycle;Max_cycle;Signal;HPM_P1;HPM_P2
2021/03/29 00:00:21;;;;;;;2.70;1.55;;;;;;;;;;5072069;28;20479;-17
2021/03/29 00:02:47;;;;;;;3.70;2.17;;;;;;;;;;5072200;28;20073;-17
2021/03/29 00:05:13;;;;;;;2.85;1.70;;;;;;;;;;5072169;28;20024;-17
2021/03/29 00:07:39;;;;;;;2.97;2.00;;;;;;;;;;5072196;28;20013;-18
2021/03/29 00:10:06;;;;;;;3.92;2.40;;;;;;;;;;5072060;28;20035;-17
2021/03/29 00:12:32;;;;;;;6.38;3.00;;;;;;;;;;5072296;28;20620;-19
2021/03/29 00:14:58;;;;;;;2.20;1.98;;;;;;;;;;5070727;28;20024;-17
2021/03/29 00:17:23;;;;;;;4.22;2.40;;;;;;;;;;5072141;28;20035;-17
2021/03/29 00:19:49;;;;;;;2.22;1.55;;;;;;;;;;5072336;28;20037;-18
2021/03/29 00:22:15;;;;;;;3.95;2.17;;;;;;;;;;5070577;28;20029;-17
2021/03/29 00:24:41;;;;;;;2.67;2.15;;;;;;;;;;5071837;28;20051;-18
2021/03/29 00:27:07;;;;;;;4.15;1.83;;;;;;;;;;5072215;28;20033;-17
2021/03/29 00:29:32;;;;;;;3.47;2.13;;;;;;;;;;5072205;28;20036;-17
2021/03/29 00:31:58;;;;;;;5.13;2.42;;;;;;;;;;5071971;28;20024;-17
2021/03/29 00:34:23;;;;;;;4.47;2.55;;;;;;;;;;5071990;28;20036;-18
2021/03/29 00:36:50;;;;;;;3.53;2.25;;;;;;;;;;5071866;28;20027;-17
2021/03/29 00:39:16;;;;;;;4.80;2.65;;;;;;;;;;5072149;28;20082;-17
2021/03/29 00:41:42;;;;;;;1.90;1.65;;;;;;;;;;5072066;28;20029;-17
2021/03/29 00:44:08;;;;;;;2.75;2.10;;;;;;;;;;5071741;28;20028;-17
2021/03/29 00:46:34;;;;;;;3.05;2.05;;;;;;;;;;5070619;28;20020;-18
2021/03/29 00:49:00;;;;;;;6.22;3.20;;;;;;;;;;5071730;28;20094;-17
2021/03/29 00:51:27;;;;;;;3.72;2.30;;;;;;;;;;5070382;28;20016;-17
2021/03/29 00:53:58;;;;;;;4.65;2.30;;;;;;;;;;5070319;28;20063;-17
2021/03/29 00:56:25;;;;;;;9.02;2.40;;;;;;;;;;5072081;28;20040;-16
2021/03/29 00:58:51;;;;;;;5.63;2.38;;;;;;;;;;5075585;28;20027;-18
2021/03/29 01:01:18;;;;;;;3.13;2.80;;;;;;;;;;5075191;28;20094;-17
2021/03/29 01:07:20;;;;;;;4.90;2.38;;;;;;;;;;5075536;28;20062;-18
2021/03/29 01:09:46;;;;;;;3.05;2.40;;;;;;;;;;5075366;28;20162;-19
2021/03/29 01:12:12;;;;;;;3.97;2.20;;;;;;;;;;5075114;28;20048;-17
2021/03/29 01:14:38;;;;;;;3.70;2.45;;;;;;;;;;5073950;28;20103;-17
2021/03/29 01:17:06;;;;;;;2.40;2.10;;;;;;;;;;5073986;28;20024;-17
2021/03/29 01:19:31;;;;;;;3.45;2.40;;;;;;;;;;5075072;28;20060;-18
2021/03/29 01:25:41;;;;;;;3.33;2.38;;;;;;;;;;5058125;28;20411;-17
2021/03/29 01:28:08;;;;;;;5.05;2.55;;;;;;;;;;5073639;28;20402;-17
2021/03/29 01:30:34;;;;;;;3.28;2.10;;;;;;;;;;5073946;28;20028;-17
2021/03/29 01:33:01;;;;;;;6.90;3.60;;;;;;;;;;5073438;28;20388;-18
2021/03/29 01:35:26;;;;;;;3.13;2.25;;;;;;;;;;5074872;28;20023;-18
2021/03/29 01:37:52;;;;;;;3.13;2.35;;;;;;;;;;5075106;28;20033;-17
2021/03/29 01:40:19;;;;;;;3.63;2.33;;;;;;;;;;5074612;28;20016;-18
2021/03/29 01:42:46;;;;;;;3.33;2.78;;;;;;;;;;5074607;28;20041;-17
2021/03/29 01:45:12;;;;;;;3.25;2.25;;;;;;;;;;5073379;28;20103;-17
2021/03/29 01:51:14;;;;;;;4.80;2.50;;;;;;;;;;5074738;28;20032;-18
2021/03/29 01:53:40;;;;;;;2.05;1.83;;;;;;;;;;5074805;28;20028;-18
2021/03/29 01:56:06;;;;;;;4.97;2.95;;;;;;;;;;5074366;28;20478;-17
2021/03/29 01:58:31;;;;;;;3.25;2.13;;;;;;;;;;5074494;28;20123;-17
2021/03/29 02:01:01;;;;;;;3.58;2.20;;;;;;;;;;5074070;28;20019;-18
2021/03/29 02:03:27;;;;;;;4.45;2.17;;;;;;;;;;5074200;28;20550;-18
2021/03/29 02:05:53;;;;;;;2.83;2.15;;;;;;;;;;5074432;28;20138;-17
2021/03/29 02:08:20;;;;;;;3.17;2.10;;;;;;;;;;5074368;28;20056;-18
2021/03/29 02:10:45;;;;;;;2.63;1.95;;;;;;;;;;5074274;28;20009;-17
2021/03/29 02:13:21;;;;;;;4.78;2.30;;;;;;;;;;5074132;28;20032;-18
2021/03/29 02:15:48;;;;;;;3.20;2.00;;;;;;;;;;5074153;28;20063;-18
2021/03/29 02:18:19;;;;;;;2.88;1.92;;;;;;;;;;5073972;28;20035;-17
2021/03/29 02:20:45;;;;;;;3.05;2.33;;;;;;;;;;5074176;28;20033;-17
2021/03/29 02:23:11;;;;;;;3.22;2.83;;;;;;;;;;5072644;28;20024;-17
2021/03/29 02:25:36;;;;;;;3.22;2.10;;;;;;;;;;5073743;28;20036;-17
2021/03/29 02:28:04;;;;;;;5.07;2.90;;;;;;;;;;5073862;28;20043;-17
2021/03/29 02:30:42;;;;;;;4.55;2.60;;;;;;;;;;5073712;28;20115;-16
2021/03/29 02:33:09;;;;;;;3.75;2.47;;;;;;;;;;5073753;28;20112;-17
2021/03/29 02:35:36;;;;;;;3.15;2.45;;;;;;;;;;5073773;28;20021;-17
2021/03/29 02:38:03;;;;;;;3.25;2.28;;;;;;;;;;5073854;28;20040;-17
2021/03/29 02:40:29;;;;;;;4.68;2.60;;;;;;;;;;5072360;28;20016;-17
2021/03/29 02:42:56;;;;;;;4.10;2.90;;;;;;;;;;5073470;28;20044;-17
2021/03/29 02:45:26;;;;;;;4.72;3.08;;;;;;;;;;5073532;28;20024;-17
2021/03/29 02:47:53;;;;;;;3.47;2.55;;;;;;;;;;5073747;28;20054;-17
2021/03/29 02:50:21;;;;;;;3.92;2.92;;;;;;;;;;5073306;28;20024;-17
2021/03/29 02:52:48;;;;;;;4.05;2.03;;;;;;;;;;5073385;28;20032;-17
2021/03/29 02:55:14;;;;;;;5.47;2.92;;;;;;;;;;5073564;28;20017;-20
2021/03/29 02:57:44;;;;;;;4.95;2.35;;;;;;;;;;5072347;28;20037;-19
2021/03/29 03:00:11;;;;;;;6.53;2.65;;;;;;;;;;5073113;28;20539;-19
2021/03/29 03:02:36;;;;;;;6.05;3.47;;;;;;;;;;5073071;28;20056;-19
2021/03/29 03:05:03;;;;;;;6.40;2.65;;;;;;;;;;5073012;28;20046;-19
2021/03/29 03:07:30;;;;;;;3.13;2.17;;;;;;;;;;5073156;28;20495;-19
2021/03/29 03:09:55;;;;;;;3.50;2.38;;;;;;;;;;5073110;28;20013;-19
2021/03/29 03:12:21;;;;;;;3.78;2.45;;;;;;;;;;5073099;28;20070;-20
2021/03/29 03:14:46;;;;;;;4.47;2.63;;;;;;;;;;5073015;28;20442;-19
2021/03/29 03:17:12;;;;;;;4.75;2.28;;;;;;;;;;5073141;28;20039;-17
2021/03/29 03:19:37;;;;;;;3.63;2.50;;;;;;;;;;5071029;28;20474;-19
2021/03/29 03:22:03;;;;;;;6.60;2.70;;;;;;;;;;5072727;28;20044;-19
2021/03/29 03:24:34;;;;;;;3.60;2.60;;;;;;;;;;5073071;28;20167;-19
2021/03/29 03:27:03;;;;;;;4.25;2.90;;;;;;;;;;5072529;28;20051;-19
2021/03/29 03:29:28;;;;;;;3.60;2.17;;;;;;;;;;5072898;28;20036;-19
2021/03/29 03:31:53;;;;;;;3.78;2.47;;;;;;;;;;5073032;28;20036;-19
2021/03/29 03:34:19;;;;;;;4.90;2.40;;;;;;;;;;5072536;28;20012;-19
2021/03/29 03:36:44;;;;;;;4.60;2.47;;;;;;;;;;5072908;28;20166;-19
2021/03/29 03:39:11;;;;;;;4.15;2.70;;;;;;;;;;5071347;28;20016;-19
2021/03/29 03:41:37;;;;;;;3.67;2.35;;;;;;;;;;5071064;28;20028;-19
2021/03/29 03:44:03;;;;;;;3.65;2.45;;;;;;;;;;5072510;28;20024;-19
2021/03/29 03:46:38;;;;;;;3.90;2.70;;;;;;;;;;5072816;28;20028;-19
2021/03/29 03:49:06;;;;;;;3.50;2.58;;;;;;;;;;5072577;28;20043;-19
2021/03/29 03:51:32;;;;;;;4.82;2.63;;;;;;;;;;5072311;28;20372;-18
2021/03/29 03:53:58;;;;;;;3.67;2.72;;;;;;;;;;5072691;28;20036;-18
2021/03/29 03:56:23;;;;;;;5.20;2.88;;;;;;;;;;5072273;28;20387;-18
2021/03/29 03:58:50;;;;;;;3.90;3.03;;;;;;;;;;5072456;28;20031;-18
2021/03/29 04:01:16;;;;;;;4.15;2.65;;;;;;;;;;5072356;28;20043;-17
2021/03/29 04:03:41;;;;;;;4.57;2.55;;;;;;;;;;5072087;28;20486;-18
2021/03/29 04:06:06;;;;;;;6.47;3.25;;;;;;;;;;5072229;28;20050;-17
2021/03/29 04:08:32;;;;;;;6.13;3.63;;;;;;;;;;5071076;28;20039;-18
2021/03/29 04:10:59;;;;;;;4.80;3.08;;;;;;;;;;5072205;28;20027;-18
2021/03/29 04:13:28;;;;;;;6.45;3.05;;;;;;;;;;5072082;28;20040;-17
2021/03/29 04:15:57;;;;;;;4.38;2.75;;;;;;;;;;5070854;28;20016;-18
2021/03/29 04:18:23;;;;;;;4.60;3.20;;;;;;;;;;5071040;28;20356;-18
2021/03/29 04:20:49;;;;;;;5.18;2.72;;;;;;;;;;5072113;28;20023;-18
2021/03/29 04:23:16;;;;;;;5.03;2.92;;;;;;;;;;5072231;28;20126;-17
2021/03/29 04:25:41;;;;;;;4.72;3.00;;;;;;;;;;5071904;28;20044;-17
2021/03/29 04:28:07;;;;;;;8.18;3.58;;;;;;;;;;5071993;28;20494;-17
2021/03/29 04:30:32;;;;;;;3.67;3.08;;;;;;;;;;5071976;28;20095;-18
2021/03/29 04:32:57;;;;;;;3.75;2.47;;;;;;;;;;5073077;28;20479;-18
2021/03/29 04:35:24;;;;;;;5.72;2.88;;;;;;;;;;5076113;28;20013;-18
2021/03/29 04:37:50;;;;;;;5.57;2.88;;;;;;;;;;5076203;28;20029;-17
2021/03/29 04:40:16;;;;;;;5.78;3.03;;;;;;;;;;5075805;28;20020;-17
2021/03/29 04:42:41;;;;;;;3.38;2.58;;;;;;;;;;5074530;28;20548;-18
2021/03/29 04:45:08;;;;;;;8.38;2.97;;;;;;;;;;5074521;28;20490;-18
2021/03/29 04:47:33;;;;;;;6.70;2.85;;;;;;;;;;5074945;28;20086;-17
2021/03/29 04:49:58;;;;;;;5.15;2.58;;;;;;;;;;5075726;28;20403;-17
2021/03/29 04:52:24;;;;;;;3.95;2.60;;;;;;;;;;5070382;28;20037;-17
2021/03/29 04:54:49;;;;;;;3.13;2.38;;;;;;;;;;5075669;28;20019;-17
2021/03/29 04:57:15;;;;;;;3.70;2.67;;;;;;;;;;5060722;28;20021;-17
2021/03/29 04:59:40;;;;;;;5.63;2.65;;;;;;;;;;5075553;28;20027;-18
2021/03/29 05:02:06;;;;;;;7.63;2.95;;;;;;;;;;5074910;28;20111;-19
2021/03/29 05:04:31;;;;;;;3.88;2.70;;;;;;;;;;5075445;28;20017;-16
2021/03/29 05:06:57;;;;;;;5.90;2.72;;;;;;;;;;5075652;28;20028;-18
2021/03/29 05:09:22;;;;;;;5.90;3.05;;;;;;;;;;5075167;28;20441;-17
2021/03/29 05:11:53;;;;;;;3.72;2.15;;;;;;;;;;5075192;28;20032;-18
2021/03/29 05:14:19;;;;;;;5.28;3.10;;;;;;;;;;5075394;28;20032;-18
2021/03/29 05:16:45;;;;;;;5.03;2.90;;;;;;;;;;5074744;28;20028;-18
2021/03/29 05:19:10;;;;;;;4.80;3.17;;;;;;;;;;5074879;28;20033;-18
2021/03/29 05:21:36;;;;;;;7.03;3.13;;;;;;;;;;5073662;28;20017;-18
2021/03/29 05:24:02;;;;;;;8.20;3.60;;;;;;;;;;5075132;28;20032;-18
2021/03/29 05:26:27;;;;;;;8.30;3.60;;;;;;;;;;5074884;28;20036;-18
2021/03/29 05:28:53;;;;;;;5.13;3.05;;;;;;;;;;5074975;28;20036;-18
2021/03/29 05:31:18;;;;;;;11.10;3.47;;;;;;;;;;5074925;28;20032;-18
2021/03/29 05:33:44;;;;;;;4.78;3.40;;;;;;;;;;5073639;28;20032;-18
2021/03/29 05:36:12;;;;;;;4.32;3.25;;;;;;;;;;4720806;28;10000315;-18
2021/03/29 05:38:39;;;;;;;4.68;3.05;;;;;;;;;;5070604;28;20029;-17
2021/03/29 05:41:04;;;;;;;7.07;3.38;;;;;;;;;;5060460;28;20526;-19
2021/03/29 05:43:30;;;;;;;5.90;3.53;;;;;;;;;;5050515;28;20037;-19
2021/03/29 05:45:56;;;;;;;4.97;3.80;;;;;;;;;;5056884;28;20448;-19
2021/03/29 05:48:22;;;;;;;5.95;3.95;;;;;;;;;;5066026;28;20143;-18
2021/03/29 05:50:48;;;;;;;4.50;3.63;;;;;;;;;;5043524;28;20094;-18
2021/03/29 05:53:14;;;;;;;4.47;2.90;;;;;;;;;;5049709;28;20032;-17
2021/03/29 05:55:42;;;;;;;6.60;3.25;;;;;;;;;;5070281;28;20008;-18
2021/03/29 05:58:33;;;;;;;5.93;3.28;;;;;;;;;;5070786;28;20497;-17
2021/03/29 06:00:59;;;;;;;8.05;3.60;;;;;;;;;;5071060;28;20391;-18
2021/03/29 06:03:31;;;;;;;4.57;3.40;;;;;;;;;;5070604;28;20035;-18
2021/03/29 06:05:58;;;;;;;3.50;3.10;;;;;;;;;;5070819;28;20064;-17
2021/03/29 06:08:23;;;;;;;5.32;3.17;;;;;;;;;;5070528;28;20021;-17
2021/03/29 06:10:53;;;;;;;4.15;2.80;;;;;;;;;;5070290;28;20472;-17
2021/03/29 06:13:29;;;;;;;4.55;3.00;;;;;;;;;;5070086;28;20020;-17
2021/03/29 06:16:01;;;;;;;6.63;3.10;;;;;;;;;;5070805;28;20028;-18
2021/03/29 06:18:27;;;;;;;5.30;3.00;;;;;;;;;;5070826;28;20595;-17
2021/03/29 06:21:06;;;;;;;3.83;2.70;;;;;;;;;;5070450;28;20016;-17
2021/03/29 06:23:32;;;;;;;3.33;2.22;;;;;;;;;;5068305;28;20094;-17
2021/03/29 06:26:17;;;;;;;3.85;2.58;;;;;;;;;;5068705;28;20041;-17
2021/03/29 06:28:43;;;;;;;6.75;2.75;;;;;;;;;;5070019;28;20503;-17
2021/03/29 06:31:30;;;;;;;4.65;3.33;;;;;;;;;;5070118;28;20063;-17
2021/03/29 06:33:57;;;;;;;4.90;3.20;;;;;;;;;;5070241;28;20044;-17
2021/03/29 06:36:31;;;;;;;5.55;3.45;;;;;;;;;;5069848;28;20008;-17
2021/03/29 06:39:12;;;;;;;4.47;2.70;;;;;;;;;;5068766;28;20816;-17
2021/03/29 06:41:38;;;;;;;6.07;3.70;;;;;;;;;;5070135;28;20032;-17
2021/03/29 06:44:03;;;;;;;4.93;3.42;;;;;;;;;;5070002;28;20081;-17
2021/03/29 06:46:29;;;;;;;5.85;4.03;;;;;;;;;;5069803;28;20017;-17
2021/03/29 06:48:56;;;;;;;6.15;3.47;;;;;;;;;;5069544;28;20020;-17
2021/03/29 06:51:22;;;;;;;6.63;3.78;;;;;;;;;;5069446;28;20086;-17
2021/03/29 06:53:55;;;;;;;7.80;3.33;;;;;;;;;;5069650;28;20020;-16
2021/03/29 06:56:28;;;;;;;7.10;3.55;;;;;;;;;;5068906;28;20432;-16
2021/03/29 06:58:55;;;;;;;3.90;3.50;;;;;;;;;;5069399;28;20103;-17
2021/03/29 07:01:24;;;;;;;6.10;3.53;;;;;;;;;;5069682;28;20020;-17
2021/03/29 07:03:50;;;;;;;7.78;4.00;;;;;;;;;;5068057;28;20395;-17
2021/03/29 07:06:17;;;;;;;4.65;3.13;;;;;;;;;;5069497;28;20017;-17
2021/03/29 07:08:44;;;;;;;5.75;3.97;;;;;;;;;;5069484;28;20059;-22
2021/03/29 07:11:11;;;;;;;7.22;3.58;;;;;;;;;;5068931;28;20031;-17
2021/03/29 07:13:38;;;;;;;5.00;3.30;;;;;;;;;;5069559;28;20111;-17
2021/03/29 07:16:04;;;;;;;5.75;3.50;;;;;;;;;;5069371;28;20060;-17
2021/03/29 07:18:29;;;;;;;7.13;3.35;;;;;;;;;;5069510;28;20024;-17
2021/03/29 07:20:55;;;;;;;3.63;3.05;;;;;;;;;;5067750;28;20028;-17
2021/03/29 07:23:21;;;;;;;7.93;3.30;;;;;;;;;;5068799;28;20060;-17
2021/03/29 07:25:46;;;;;;;5.30;2.38;;;;;;;;;;5069300;28;20049;-17
2021/03/29 07:28:12;;;;;;;5.80;3.80;;;;;;;;;;5069067;28;20074;-17
2021/03/29 07:30:42;;;;;;;6.55;3.25;;;;;;;;;;5068709;28;20032;-17
2021/03/29 07:33:09;;;;;;;5.80;3.63;;;;;;;;;;5054583;28;20037;-17
2021/03/29 07:35:45;;;;;;;9.93;3.83;;;;;;;;;;5054756;28;20029;-16
2021/03/29 07:38:12;;;;;;;8.93;3.97;;;;;;;;;;5068871;28;20475;-17
2021/03/29 07:40:38;;;;;;;11.70;3.42;;;;;;;;;;5068749;28;20044;-16
2021/03/29 07:43:24;;;;;;;5.63;3.33;;;;;;;;;;5068998;28;20077;-16
2021/03/29 07:45:54;;;;;;;6.47;3.38;;;;;;;;;;5068691;28;20084;-17
2021/03/29 07:48:36;;;;;;;5.63;3.05;;;;;;;;;;5068816;28;20109;-17
2021/03/29 07:51:03;;;;;;;4.15;3.50;;;;;;;;;;5068996;28;20052;-17
2021/03/29 07:53:41;;;;;;;5.85;3.47;;;;;;;;;;5069243;28;20012;-17
2021/03/29 07:56:08;;;;;;;9.70;3.80;;;;;;;;;;5068948;28;20140;-17
2021/03/29 07:58:42;;;;;;;5.35;3.28;;;;;;;;;;5068791;28;20017;-17
2021/03/29 08:01:09;;;;;;;4.07;3.67;;;;;;;;;;5068769;28;20127;-19
2021/03/29 08:03:35;;;;;;;8.15;3.63;;;;;;;;;;5068913;28;20422;-26
2021/03/29 08:06:01;;;;;;;5.18;3.83;;;;;;;;;;5068845;28;20074;-17
2021/03/29 08:08:26;;;;;;;4.18;2.63;;;;;;;;;;5068968;28;20099;-17
2021/03/29 08:11:00;;;;;;;5.60;4.07;;;;;;;;;;5069122;28;20029;-17
2021/03/29 08:13:39;;;;;;;4.50;2.92;;;;;;;;;;5068710;28;20059;-17
2021/03/29 08:16:06;;;;;;;4.93;3.45;;;;;;;;;;5068927;28;20064;-17
2021/03/29 08:18:50;;;;;;;4.82;3.45;;;;;;;;;;5068875;28;20071;-17
2021/03/29 08:21:35;;;;;;;3.88;2.83;;;;;;;;;;5068544;28;20043;-17
2021/03/29 08:24:00;;;;;;;4.47;3.33;;;;;;;;;;5068501;28;20032;-17
2021/03/29 08:26:36;;;;;;;7.72;4.00;;;;;;;;;;5068378;28;20689;-17
2021/03/29 08:29:08;;;;;;;6.72;4.40;;;;;;;;;;5068635;28;20032;-17
2021/03/29 08:31:52;;;;;;;5.22;3.40;;;;;;;;;;5068349;28;20475;-17
2021/03/29 08:34:20;;;;;;;4.07;3.25;;;;;;;;;;5067929;28;20029;-17
2021/03/29 08:36:45;;;;;;;6.90;3.88;;;;;;;;;;5053130;28;20024;-17
2021/03/29 08:39:11;;;;;;;5.53;4.07;;;;;;;;;;5048010;28;20029;-20
2021/03/29 08:41:37;;;;;;;4.63;3.30;;;;;;;;;;5046818;28;20634;-17
2021/03/29 08:44:03;;;;;;;6.70;4.05;;;;;;;;;;5047260;28;20116;-18
2021/03/29 08:46:30;;;;;;;6.07;2.92;;;;;;;;;;5048177;28;20036;-24
2021/03/29 08:48:55;;;;;;;6.13;2.90;;;;;;;;;;5047391;28;20025;-17
2021/03/29 08:51:21;;;;;;;3.45;2.42;;;;;;;;;;5048389;28;20021;-17
2021/03/29 08:54:02;;;;;;;7.97;4.10;;;;;;;;;;5048293;28;20055;-17
2021/03/29 08:56:40;;;;;;;10.35;3.53;;;;;;;;;;5048139;28;20029;-17
2021/03/29 08:59:07;;;;;;;8.52;3.78;;;;;;;;;;5047389;28;20025;-17
2021/03/29 09:01:32;;;;;;;6.90;4.30;;;;;;;;;;5048270;28;21771;-17
2021/03/29 09:04:05;;;;;;;8.18;4.93;;;;;;;;;;5047732;28;20034;-18
2021/03/29 09:06:34;;;;;;;12.30;4.55;;;;;;;;;;5047941;28;20033;-17
2021/03/29 09:09:15;;;;;;;7.35;4.65;;;;;;;;;;5049920;28;20124;-17
2021/03/29 09:11:44;;;;;;;6.50;3.92;;;;;;;;;;5067489;28;20037;-18
2021/03/29 09:14:10;;;;;;;4.32;3.33;;;;;;;;;;5066543;28;20552;-16
2021/03/29 09:16:36;;;;;;;7.28;3.80;;;;;;;;;;5067670;28;20467;-17
2021/03/29 09:19:15;;;;;;;6.22;3.75;;;;;;;;;;5070180;28;20024;-17
2021/03/29 09:21:41;;;;;;;7.65;3.65;;;;;;;;;;5071453;28;20017;-17
2021/03/29 09:24:20;;;;;;;5.90;3.72;;;;;;;;;;5069517;28;20013;-17
2021/03/29 09:27:11;;;;;;;6.93;3.28;;;;;;;;;;5071320;28;20820;-17
2021/03/29 09:29:43;;;;;;;8.00;4.68;;;;;;;;;;5053078;28;20148;-17
2021/03/29 09:32:12;;;;;;;6.93;4.78;;;;;;;;;;5050114;28;20029;-17
2021/03/29 09:34:37;;;;;;;6.75;4.45;;;;;;;;;;5068048;28;20085;-17
2021/03/29 09:37:03;;;;;;;12.65;4.55;;;;;;;;;;5055484;28;20590;-18
2021/03/29 09:39:30;;;;;;;6.60;4.20;;;;;;;;;;5050964;28;20025;-17
2021/03/29 09:41:55;;;;;;;12.75;4.82;;;;;;;;;;5063894;28;20506;-18
2021/03/29 09:44:24;;;;;;;6.65;4.78;;;;;;;;;;5070744;28;20017;-17
2021/03/29 09:46:52;;;;;;;10.48;5.35;;;;;;;;;;5070907;28;20032;-17
2021/03/29 09:49:17;;;;;;;9.85;5.35;;;;;;;;;;5070447;28;20027;-17
2021/03/29 09:51:44;;;;;;;10.85;5.15;;;;;;;;;;5070884;28;20028;-17
2021/03/29 09:54:21;;;;;;;9.15;5.43;;;;;;;;;;5064434;28;20383;-17
2021/03/29 09:56:47;;;;;;;10.13;5.50;;;;;;;;;;5071022;28;20036;-17
2021/03/29 09:59:12;;;;;;;6.65;4.75;;;;;;;;;;5070072;28;20489;-17
2021/03/29 10:01:44;;;;;;;10.07;5.60;;;;;;;;;;5070269;28;20020;-18
2021/03/29 10:04:13;;;;;;;10.48;5.65;;;;;;;;;;5070165;28;20033;-18
2021/03/29 10:06:49;;;;;;;13.82;5.60;;;;;;;;;;5070866;28;20106;-18
2021/03/29 10:09:14;;;;;;;10.40;5.22;;;;;;;;;;5070774;28;20032;-18
2021/03/29 10:11:44;;;;;;;8.40;4.68;;;;;;;;;;5070427;28;20013;-18
2021/03/29 10:14:09;;;;;;;6.80;4.18;;;;;;;;;;5070725;28;20555;-18
2021/03/29 10:16:48;;;;;;;7.60;3.90;;;;;;;;;;5070625;28;20099;-18
2021/03/29 10:19:14;;;;;;;8.93;4.70;;;;;;;;;;5070289;28;20085;-17
2021/03/29 10:21:58;;;;;;;4.72;3.60;;;;;;;;;;5070714;28;20376;-17
2021/03/29 10:24:24;;;;;;;9.75;5.45;;;;;;;;;;5070017;28;20048;-17
2021/03/29 10:26:56;;;;;;;9.77;4.60;;;;;;;;;;5070363;28;20048;-17
2021/03/29 10:29:50;;;;;;;5.53;3.08;;;;;;;;;;5069786;28;20032;-17
2021/03/29 10:32:17;;;;;;;6.60;3.15;;;;;;;;;;5057057;28;20434;-17
2021/03/29 10:34:43;;;;;;;4.75;3.22;;;;;;;;;;5070351;28;20051;-17
2021/03/29 10:37:18;;;;;;;10.13;4.18;;;;;;;;;;5070168;28;20089;-18
2021/03/29 10:39:43;;;;;;;9.20;3.92;;;;;;;;;;5069962;28;20535;-18
2021/03/29 10:42:09;;;;;;;10.45;3.90;;;;;;;;;;5069184;28;20036;-17
2021/03/29 10:44:35;;;;;;;5.55;3.22;;;;;;;;;;5069986;28;20028;-17
2021/03/29 10:47:00;;;;;;;6.68;3.65;;;;;;;;;;5068047;28;20449;-17
2021/03/29 10:49:25;;;;;;;8.45;3.80;;;;;;;;;;5070129;28;20032;-18
2021/03/29 10:51:51;;;;;;;4.88;3.55;;;;;;;;;;5070077;28;20028;-22
2021/03/29 10:54:16;;;;;;;5.07;3.25;;;;;;;;;;5070031;28;20069;-18
2021/03/29 10:56:41;;;;;;;7.60;3.22;;;;;;;;;;5070657;28;20028;-17
2021/03/29 10:59:07;;;;;;;3.10;1.63;;;;;;;;;;5069735;28;20029;-17
2021/03/29 11:01:32;;;;;;;8.38;4.90;;;;;;;;;;5068857;28;20077;-17
2021/03/29 11:03:58;;;;;;;4.63;3.63;;;;;;;;;;5069760;28;20048;-17
2021/03/29 11:06:23;;;;;;;5.38;4.35;;;;;;;;;;5069618;28;20031;-17
2021/03/29 11:08:49;;;;;;;10.75;5.65;;;;;;;;;;5068428;28;20036;-16
2021/03/29 11:11:14;;;;;;;3.53;2.20;;;;;;;;;;5069267;28;20028;-17
2021/03/29 11:13:39;;;;;;;8.30;3.97;;;;;;;;;;5069798;28;20036;-18
2021/03/29 11:16:08;;;;;;;9.63;5.38;;;;;;;;;;5069637;28;20467;-17
2021/03/29 11:18:33;;;;;;;6.22;2.97;;;;;;;;;;5069807;28;20447;-18
2021/03/29 11:20:58;;;;;;;5.72;3.75;;;;;;;;;;5069621;28;20048;-18
2021/03/29 11:23:25;;;;;;;10.25;6.22;;;;;;;;;;5069042;28;20136;-18
2021/03/29 11:25:52;;;;;;;11.85;4.28;;;;;;;;;;5069209;28;20059;-17
2021/03/29 11:28:18;;;;;;;2.08;1.08;;;;;;;;;;5069801;28;20032;-17
2021/03/29 11:30:43;;;;;;;4.40;2.97;;;;;;;;;;5069626;28;20025;-18
2021/03/29 11:33:09;;;;;;;7.75;5.80;;;;;;;;;;5069419;28;20024;-18
2021/03/29 11:35:34;;;;;;;7.22;4.35;;;;;;;;;;5068825;28;20463;-17
2021/03/29 11:38:00;;;;;;;8.80;4.88;;;;;;;;;;5069098;28;20150;-17
2021/03/29 11:40:25;;;;;;;4.05;3.05;;;;;;;;;;5068935;28;20012;-17
2021/03/29 11:42:51;;;;;;;6.88;3.60;;;;;;;;;;5068574;28;20537;-18
2021/03/29 11:45:16;;;;;;;2.22;1.42;;;;;;;;;;5069192;28;20424;-17
2021/03/29 11:47:42;;;;;;;7.78;3.60;;;;;;;;;;5068627;28;20024;-18
2021/03/29 11:50:11;;;;;;;2.40;1.48;;;;;;;;;;5068639;28;20024;-17
2021/03/29 11:52:37;;;;;;;5.07;3.08;;;;;;;;;;5068807;28;20482;-18
2021/03/29 11:55:03;;;;;;;5.88;2.20;;;;;;;;;;5068750;28;20048;-17
2021/03/29 11:57:28;;;;;;;5.85;3.17;;;;;;;;;;5067217;28;20024;-17
2021/03/29 11:59:54;;;;;;;8.32;4.43;;;;;;;;;;5068271;28;20044;-17
2021/03/29 12:02:57;;;;;;;4.85;2.28;;;;;;;;;;5068665;28;20055;-18
2021/03/29 12:05:23;;;;;;;0.95;0.57;;;;;;;;;;5067358;28;20048;-17
2021/03/29 12:13:00;;;;;;;7.13;2.92;;;;;;;;;;5068628;28;20056;-18
2021/03/29 12:15:26;;;;;;;9.52;4.55;;;;;;;;;;5059745;28;20701;-17
2021/03/29 12:17:52;;;;;;;0.93;0.50;;;;;;;;;;5068567;28;20032;-17
2021/03/29 12:20:17;;;;;;;6.72;4.00;;;;;;;;;;5060208;28;20070;-17
2021/03/29 12:22:44;;;;;;;8.60;4.90;;;;;;;;;;5047959;28;20056;-17
2021/03/29 12:25:15;;;;;;;10.77;5.57;;;;;;;;;;5047944;28;20031;-17
2021/03/29 12:27:41;;;;;;;5.13;3.08;;;;;;;;;;5047293;28;20112;-18
2021/03/29 12:30:12;;;;;;;7.95;3.35;;;;;;;;;;5048366;28;20099;-23
2021/03/29 12:32:38;;;;;;;10.23;4.57;;;;;;;;;;5048521;28;20098;-19
2021/03/29 12:35:04;;;;;;;8.05;4.82;;;;;;;;;;5049870;28;20431;-17
2021/03/29 12:37:30;;;;;;;5.63;3.88;;;;;;;;;;5068201;28;20047;-17
2021/03/29 12:40:01;;;;;;;4.72;3.22;;;;;;;;;;5068227;28;20072;-18
2021/03/29 12:42:30;;;;;;;11.57;5.20;;;;;;;;;;5068055;28;20453;-17
2021/03/29 12:44:56;;;;;;;10.45;5.35;;;;;;;;;;5068859;28;20029;-17
2021/03/29 12:47:30;;;;;;;6.45;3.80;;;;;;;;;;5068169;28;20032;-17
2021/03/29 12:50:06;;;;;;;8.48;5.35;;;;;;;;;;5068245;28;20037;-17
2021/03/29 12:52:31;;;;;;;9.00;6.70;;;;;;;;;;5068194;28;20031;-17
2021/03/29 12:54:57;;;;;;;10.88;4.95;;;;;;;;;;5070523;28;20025;-18
2021/03/29 12:57:22;;;;;;;10.45;6.40;;;;;;;;;;5070583;28;20025;-17
2021/03/29 12:59:47;;;;;;;10.82;5.28;;;;;;;;;;5071972;28;20142;-20
2021/03/29 13:02:14;;;;;;;7.65;4.43;;;;;;;;;;5072161;28;20139;-18
2021/03/29 13:04:42;;;;;;;12.82;6.40;;;;;;;;;;5072322;28;20028;-17
2021/03/29 13:12:16;;;;;;;7.25;4.13;;;;;;;;;;5057204;28;20032;-18
2021/03/29 13:15:08;;;;;;;10.60;5.63;;;;;;;;;;5060235;28;20025;-17
2021/03/29 13:17:37;;;;;;;10.60;5.40;;;;;;;;;;5047897;28;20496;-18
2021/03/29 13:20:04;;;;;;;7.63;4.32;;;;;;;;;;5050336;28;20029;-17
2021/03/29 13:22:30;;;;;;;9.00;4.80;;;;;;;;;;5051534;28;20075;-16
2021/03/29 13:24:55;;;;;;;18.45;7.70;;;;;;;;;;5065040;28;20071;-21
2021/03/29 13:27:21;;;;;;;12.75;8.55;;;;;;;;;;5069491;28;20025;-18
2021/03/29 13:29:47;;;;;;;12.52;6.93;;;;;;;;;;5066756;28;20036;-17
2021/03/29 13:32:12;;;;;;;11.57;7.18;;;;;;;;;;5071274;28;20024;-17
2021/03/29 13:34:38;;;;;;;11.30;5.28;;;;;;;;;;5071502;28;20074;-17
2021/03/29 13:37:04;;;;;;;9.93;3.38;;;;;;;;;;5071183;28;20537;-17
2021/03/29 13:39:30;;;;;;;6.60;3.85;;;;;;;;;;5071509;28;20043;-17
2021/03/29 13:41:55;;;;;;;10.65;6.57;;;;;;;;;;5071292;28;20028;-17
2021/03/29 13:44:21;;;;;;;3.30;2.00;;;;;;;;;;5071533;28;20455;-17
2021/03/29 13:46:47;;;;;;;6.63;4.05;;;;;;;;;;5071268;28;20032;-17
2021/03/29 13:49:13;;;;;;;11.25;7.00;;;;;;;;;;5071103;28;20478;-18
2021/03/29 13:51:38;;;;;;;8.55;6.00;;;;;;;;;;5071652;28;20466;-17
2021/03/29 13:54:07;;;;;;;5.47;2.65;;;;;;;;;;5053374;28;20021;-17
2021/03/29 13:56:33;;;;;;;9.63;5.35;;;;;;;;;;5071371;28;20127;-17
2021/03/29 13:58:59;;;;;;;7.93;4.88;;;;;;;;;;5071284;28;20119;-17
2021/03/29 14:01:25;;;;;;;6.95;4.97;;;;;;;;;;5071001;28;20044;-18
2021/03/29 14:03:50;;;;;;;2.28;2.08;;;;;;;;;;5070908;28;20028;-16
2021/03/29 14:06:15;;;;;;;13.68;6.00;;;;;;;;;;5071224;28;20051;-17
2021/03/29 14:08:41;;;;;;;8.23;5.38;;;;;;;;;;5071183;28;20021;-18
2021/03/29 14:11:07;;;;;;;10.32;6.20;;;;;;;;;;5070508;28;20225;-17
2021/03/29 14:13:32;;;;;;;12.40;6.47;;;;;;;;;;5071179;28;20032;-17
2021/03/29 14:15:58;;;;;;;5.97;3.33;;;;;;;;;;5070825;28;20040;-17
2021/03/29 14:18:23;;;;;;;10.63;5.85;;;;;;;;;;5070810;28;20024;-17
2021/03/29 14:20:49;;;;;;;5.00;3.47;;;;;;;;;;5071283;28;20039;-17
2021/03/29 14:23:15;;;;;;;8.10;4.93;;;;;;;;;;5070057;28;20040;-17
2021/03/29 14:25:41;;;;;;;9.85;5.35;;;;;;;;;;5070594;28;20052;-17
2021/03/29 14:28:06;;;;;;;12.73;5.55;;;;;;;;;;5069283;28;20043;-17
2021/03/29 14:30:32;;;;;;;10.70;7.00;;;;;;;;;;5070391;28;20028;-17
2021/03/29 14:32:59;;;;;;;8.10;5.20;;;;;;;;;;5070663;28;20050;-18
2021/03/29 14:43:45;;;;;;;8.65;3.80;;;;;;;;;;5069908;28;20570;-17
2021/03/29 14:45:54;;;;;;;12.55;5.40;;;;;;;;;;5066173;28;20032;-18
2021/03/29 14:48:19;;;;;;;8.77;5.55;;;;;;;;;;5057461;28;20016;-17
2021/03/29 14:50:45;;;;;;;13.30;7.88;;;;;;;;;;5069614;28;20028;-18
2021/03/29 14:53:10;;;;;;;12.32;7.50;;;;;;;;;;5069590;28;20055;-19
2021/03/29 14:55:36;;;;;;;13.15;5.88;;;;;;;;;;5069638;28;20041;-17
2021/03/29 14:58:01;;;;;;;11.48;5.93;;;;;;;;;;5069415;28;20133;-17
2021/03/29 15:00:27;;;;;;;3.70;2.33;;;;;;;;;;5069606;28;20090;-17
2021/03/29 15:03:01;;;;;;;7.50;3.72;;;;;;;;;;5069641;28;20107;-17
2021/03/29 15:05:35;;;;;;;9.30;5.32;;;;;;;;;;5059826;28;20078;-18
2021/03/29 15:08:01;;;;;;;5.60;3.40;;;;;;;;;;5055577;28;20040;-18
2021/03/29 15:10:27;;;;;;;6.10;4.38;;;;;;;;;;5068882;28;20424;-19
2021/03/29 15:12:52;;;;;;;10.63;5.30;;;;;;;;;;5063515;28;20437;-17